This is the latest recevied weather packets stored in our database for station/object IW1CBG-3. If no packets are shown the sender has not sent any weather packets the latest 10 day(s).
| Time | Temp. | Humidity | Pressure | Rain* | Wind** | Luminosity | Snow |
|---|---|---|---|---|---|---|---|
| 1777769439 | 6.11° C | 85% | 1034.7 hPa | 0 mm | - | - | - |
| 1777768838 | 6.67° C | 84% | 1034.8 hPa | 0 mm | - | - | - |
| 1777768238 | 6.67° C | 84% | 1035 hPa | 0 mm | - | - | - |
| 1777767638 | 6.67° C | 85% | 1035.1 hPa | 0 mm | - | - | - |
| 1777767038 | 6.67° C | 85% | 1035.2 hPa | 0 mm | - | - | - |
| 1777766439 | 6.67° C | 84% | 1035.1 hPa | 0 mm | - | - | - |
| 1777765839 | 7.22° C | 83% | 1035.1 hPa | 0 mm | - | - | - |
| 1777765238 | 7.22° C | 82% | 1035.1 hPa | 0 mm | - | - | - |
| 1777764638 | 6.67° C | 83% | 1035.2 hPa | 0 mm | - | - | - |
| 1777764038 | 7.22° C | 83% | 1035.1 hPa | 0 mm | - | - | - |
| 1777763438 | 7.22° C | 83% | 1035.1 hPa | 0 mm | - | - | - |
| 1777762838 | 7.22° C | 82% | 1035.2 hPa | 0 mm | - | - | - |
| 1777762239 | 7.78° C | 80% | 1035.1 hPa | 0 mm | - | - | - |
| 1777761638 | 7.78° C | 81% | 1035 hPa | 0 mm | - | - | - |
| 1777761038 | 7.78° C | 81% | 1035.2 hPa | 0 mm | - | - | - |
| 1777760438 | 7.78° C | 81% | 1035 hPa | 0 mm | - | - | - |
| 1777759840 | 8.33° C | 78% | 1035 hPa | 0 mm | - | - | - |
| 1777759239 | 8.89° C | 78% | 1035.1 hPa | 0 mm | - | - | - |
| 1777758639 | 8.89° C | 77% | 1034.8 hPa | 0 mm | - | - | - |
| 1777758039 | 9.44° C | 73% | 1034.4 hPa | 0 mm | - | - | - |
| 1777757439 | 9.44° C | 74% | 1034.4 hPa | 0 mm | - | - | - |
| 1777756839 | 10.56° C | 69% | 1033.8 hPa | 0 mm | - | - | - |
| 1777756239 | 11.11° C | 68% | 1033.9 hPa | 0 mm | - | - | - |
| 1777755639 | 11.11° C | 68% | 1033.8 hPa | 0 mm | - | - | - |
| 1777755039 | 11.11° C | 70% | 1034.3 hPa | 0 mm | - | - | - |
* Rain latest hour (hover to see other rain measurements)
** Current wind speed in m/s (hover to see current wind gust speed)